sensor_id;sensor_type;location;lat;lon;timestamp;pressure;altitude;pressure_sealevel;temperature;humidity
13593;BME280;6867;50.998;4.250;2023-07-13T00:01:26;101217.38;;;17.22;75.17
13593;BME280;6867;50.998;4.250;2023-07-13T00:03:53;101217.88;;;17.18;75.30
13593;BME280;6867;50.998;4.250;2023-07-13T00:06:19;101211.41;;;17.08;75.37
13593;BME280;6867;50.998;4.250;2023-07-13T00:08:46;101222.38;;;17.01;75.66
13593;BME280;6867;50.998;4.250;2023-07-13T00:11:15;101221.00;;;16.87;76.25
13593;BME280;6867;50.998;4.250;2023-07-13T00:13:43;101217.00;;;16.89;76.30
13593;BME280;6867;50.998;4.250;2023-07-13T00:16:11;101212.50;;;16.83;76.61
13593;BME280;6867;50.998;4.250;2023-07-13T00:18:39;101219.00;;;16.82;76.63
13593;BME280;6867;50.998;4.250;2023-07-13T00:21:06;101215.22;;;16.72;77.14
13593;BME280;6867;50.998;4.250;2023-07-13T00:23:33;101219.94;;;16.64;77.11
13593;BME280;6867;50.998;4.250;2023-07-13T00:26:00;101214.03;;;16.67;77.35
13593;BME280;6867;50.998;4.250;2023-07-13T00:28:28;101211.00;;;16.76;76.93
13593;BME280;6867;50.998;4.250;2023-07-13T00:30:55;101211.69;;;16.83;76.74
13593;BME280;6867;50.998;4.250;2023-07-13T00:33:22;101227.50;;;16.74;76.93
13593;BME280;6867;50.998;4.250;2023-07-13T00:35:49;101235.97;;;16.66;77.36
13593;BME280;6867;50.998;4.250;2023-07-13T00:38:16;101228.44;;;16.68;77.46
13593;BME280;6867;50.998;4.250;2023-07-13T00:40:43;101232.19;;;16.67;76.96
13593;BME280;6867;50.998;4.250;2023-07-13T00:43:11;101237.88;;;16.54;77.39
13593;BME280;6867;50.998;4.250;2023-07-13T00:48:43;101240.56;;;16.54;77.15
13593;BME280;6867;50.998;4.250;2023-07-13T00:51:12;101234.94;;;16.43;77.80
13593;BME280;6867;50.998;4.250;2023-07-13T00:53:39;101238.56;;;16.37;78.22
13593;BME280;6867;50.998;4.250;2023-07-13T00:56:06;101240.81;;;16.40;77.83
13593;BME280;6867;50.998;4.250;2023-07-13T00:58:34;101236.81;;;16.31;78.11
13593;BME280;6867;50.998;4.250;2023-07-13T01:01:01;101247.75;;;16.25;78.66
13593;BME280;6867;50.998;4.250;2023-07-13T01:03:28;101243.63;;;16.22;78.75
13593;BME280;6867;50.998;4.250;2023-07-13T01:05:56;101251.88;;;16.27;78.72
13593;BME280;6867;50.998;4.250;2023-07-13T01:08:23;101255.78;;;16.31;78.64
13593;BME280;6867;50.998;4.250;2023-07-13T01:10:54;101252.25;;;16.31;78.73
13593;BME280;6867;50.998;4.250;2023-07-13T01:13:21;101255.66;;;16.26;78.71
13593;BME280;6867;50.998;4.250;2023-07-13T01:15:50;101253.28;;;16.18;79.37
13593;BME280;6867;50.998;4.250;2023-07-13T01:18:20;101248.53;;;16.13;79.43
13593;BME280;6867;50.998;4.250;2023-07-13T01:20:53;101249.72;;;16.06;79.67
13593;BME280;6867;50.998;4.250;2023-07-13T01:23:20;101259.00;;;15.98;79.57
13593;BME280;6867;50.998;4.250;2023-07-13T01:25:47;101270.06;;;15.97;79.97
13593;BME280;6867;50.998;4.250;2023-07-13T01:28:13;101261.09;;;15.96;79.82
13593;BME280;6867;50.998;4.250;2023-07-13T01:30:43;101273.38;;;15.99;79.88
13593;BME280;6867;50.998;4.250;2023-07-13T01:33:11;101272.56;;;15.98;80.46
13593;BME280;6867;50.998;4.250;2023-07-13T01:35:38;101276.09;;;15.99;80.41
13593;BME280;6867;50.998;4.250;2023-07-13T01:38:06;101273.13;;;16.00;80.71
13593;BME280;6867;50.998;4.250;2023-07-13T01:40:34;101275.84;;;16.00;81.02
13593;BME280;6867;50.998;4.250;2023-07-13T01:43:01;101263.44;;;15.92;81.03
13593;BME280;6867;50.998;4.250;2023-07-13T01:45:27;101265.56;;;15.90;81.12
13593;BME280;6867;50.998;4.250;2023-07-13T01:47:54;101270.75;;;15.92;81.42
13593;BME280;6867;50.998;4.250;2023-07-13T01:50:20;101271.69;;;15.86;81.31
13593;BME280;6867;50.998;4.250;2023-07-13T01:52:47;101272.16;;;15.83;81.55
13593;BME280;6867;50.998;4.250;2023-07-13T01:55:15;101273.78;;;15.84;81.93
13593;BME280;6867;50.998;4.250;2023-07-13T01:57:42;101276.78;;;15.94;81.93
13593;BME280;6867;50.998;4.250;2023-07-13T02:00:10;101274.91;;;15.94;81.93
13593;BME280;6867;50.998;4.250;2023-07-13T02:02:37;101264.38;;;15.86;81.61
13593;BME280;6867;50.998;4.250;2023-07-13T02:05:05;101270.06;;;15.85;81.70
13593;BME280;6867;50.998;4.250;2023-07-13T02:07:32;101275.22;;;15.86;81.90
13593;BME280;6867;50.998;4.250;2023-07-13T02:09:58;101280.28;;;15.83;82.28
13593;BME280;6867;50.998;4.250;2023-07-13T02:12:26;101284.72;;;15.77;82.30
13593;BME280;6867;50.998;4.250;2023-07-13T02:14:53;101287.56;;;15.82;82.40
13593;BME280;6867;50.998;4.250;2023-07-13T02:17:20;101285.44;;;15.73;82.71
13593;BME280;6867;50.998;4.250;2023-07-13T02:19:47;101286.47;;;15.72;82.60
13593;BME280;6867;50.998;4.250;2023-07-13T02:22:13;101285.56;;;15.78;82.81
13593;BME280;6867;50.998;4.250;2023-07-13T02:24:40;101280.72;;;15.80;83.13
13593;BME280;6867;50.998;4.250;2023-07-13T02:27:07;101281.69;;;15.85;82.76
13593;BME280;6867;50.998;4.250;2023-07-13T02:29:35;101274.78;;;15.89;82.53
13593;BME280;6867;50.998;4.250;2023-07-13T02:32:01;101280.88;;;15.85;82.68
13593;BME280;6867;50.998;4.250;2023-07-13T02:34:28;101278.16;;;15.85;82.89
13593;BME280;6867;50.998;4.250;2023-07-13T02:36:55;101279.81;;;15.86;82.97
13593;BME280;6867;50.998;4.250;2023-07-13T02:39:21;101279.38;;;15.89;83.29
13593;BME280;6867;50.998;4.250;2023-07-13T02:41:48;101280.31;;;15.94;83.54
13593;BME280;6867;50.998;4.250;2023-07-13T02:44:15;101283.97;;;16.00;83.59
13593;BME280;6867;50.998;4.250;2023-07-13T02:46:43;101278.84;;;16.10;83.38
13593;BME280;6867;50.998;4.250;2023-07-13T02:49:10;101280.16;;;16.19;83.16
13593;BME280;6867;50.998;4.250;2023-07-13T02:51:36;101273.31;;;16.29;82.91
13593;BME280;6867;50.998;4.250;2023-07-13T02:54:04;101273.00;;;16.49;82.06
13593;BME280;6867;50.998;4.250;2023-07-13T02:56:33;101274.19;;;16.64;81.69
13593;BME280;6867;50.998;4.250;2023-07-13T02:59:00;101271.13;;;16.84;81.39
13593;BME280;6867;50.998;4.250;2023-07-13T03:01:26;101271.84;;;16.91;80.87
13593;BME280;6867;50.998;4.250;2023-07-13T03:03:54;101266.75;;;17.07;80.69
13593;BME280;6867;50.998;4.250;2023-07-13T03:06:21;101267.22;;;17.15;80.29
13593;BME280;6867;50.998;4.250;2023-07-13T03:08:48;101279.00;;;17.09;80.43
13593;BME280;6867;50.998;4.250;2023-07-13T03:11:17;101276.91;;;17.11;80.45
13593;BME280;6867;50.998;4.250;2023-07-13T03:13:45;101280.28;;;17.30;79.80
13593;BME280;6867;50.998;4.250;2023-07-13T03:16:12;101285.38;;;17.27;79.72
13593;BME280;6867;50.998;4.250;2023-07-13T03:18:41;101285.09;;;17.40;79.29
13593;BME280;6867;50.998;4.250;2023-07-13T03:21:09;101277.69;;;17.35;79.21
13593;BME280;6867;50.998;4.250;2023-07-13T03:23:36;101281.69;;;17.33;79.21
13593;BME280;6867;50.998;4.250;2023-07-13T03:26:04;101279.34;;;17.25;79.16
13593;BME280;6867;50.998;4.250;2023-07-13T03:28:31;101276.50;;;17.31;79.66
13593;BME280;6867;50.998;4.250;2023-07-13T03:31:02;101277.19;;;17.38;79.29
13593;BME280;6867;50.998;4.250;2023-07-13T03:33:29;101283.84;;;17.31;79.49
13593;BME280;6867;50.998;4.250;2023-07-13T03:35:56;101281.59;;;17.28;79.68
13593;BME280;6867;50.998;4.250;2023-07-13T03:38:24;101283.22;;;17.40;79.21
13593;BME280;6867;50.998;4.250;2023-07-13T03:40:51;101293.81;;;17.42;79.22
13593;BME280;6867;50.998;4.250;2023-07-13T03:43:18;101296.75;;;17.52;78.78
13593;BME280;6867;50.998;4.250;2023-07-13T03:45:45;101303.13;;;17.58;78.57
13593;BME280;6867;50.998;4.250;2023-07-13T03:48:12;101293.97;;;17.64;78.25
13593;BME280;6867;50.998;4.250;2023-07-13T03:50:39;101297.22;;;17.61;78.25
13593;BME280;6867;50.998;4.250;2023-07-13T03:53:06;101299.91;;;17.61;78.65
13593;BME280;6867;50.998;4.250;2023-07-13T03:55:34;101308.91;;;17.61;78.72
13593;BME280;6867;50.998;4.250;2023-07-13T03:58:26;101307.72;;;17.57;78.78
13593;BME280;6867;50.998;4.250;2023-07-13T04:00:53;101310.69;;;17.56;78.63
13593;BME280;6867;50.998;4.250;2023-07-13T04:03:20;101314.16;;;17.68;78.81
13593;BME280;6867;50.998;4.250;2023-07-13T04:05:47;101310.16;;;17.71;78.31
13593;BME280;6867;50.998;4.250;2023-07-13T04:08:13;101319.22;;;17.48;78.80
13593;BME280;6867;50.998;4.250;2023-07-13T04:10:42;101315.03;;;17.68;78.04
13593;BME280;6867;50.998;4.250;2023-07-13T04:13:09;101334.41;;;17.60;79.15
13593;BME280;6867;50.998;4.250;2023-07-13T04:15:35;101331.25;;;17.52;78.70
13593;BME280;6867;50.998;4.250;2023-07-13T04:18:02;101333.44;;;17.66;79.21
13593;BME280;6867;50.998;4.250;2023-07-13T04:20:29;101331.88;;;17.71;78.90
13593;BME280;6867;50.998;4.250;2023-07-13T04:22:56;101329.56;;;17.74;78.79
13593;BME280;6867;50.998;4.250;2023-07-13T04:25:24;101329.47;;;17.98;77.98
13593;BME280;6867;50.998;4.250;2023-07-13T04:27:52;101330.38;;;18.03;77.80
13593;BME280;6867;50.998;4.250;2023-07-13T04:30:19;101336.97;;;18.07;77.31
13593;BME280;6867;50.998;4.250;2023-07-13T04:32:47;101332.88;;;17.93;77.59
13593;BME280;6867;50.998;4.250;2023-07-13T04:35:13;101338.56;;;18.20;77.22
13593;BME280;6867;50.998;4.250;2023-07-13T04:37:40;101332.44;;;18.13;76.99
13593;BME280;6867;50.998;4.250;2023-07-13T04:40:08;101346.59;;;18.27;77.17
13593;BME280;6867;50.998;4.250;2023-07-13T04:42:37;101338.56;;;18.20;76.60
13593;BME280;6867;50.998;4.250;2023-07-13T04:45:07;101356.03;;;18.24;77.31
13593;BME280;6867;50.998;4.250;2023-07-13T04:47:33;101356.22;;;18.34;77.06
13593;BME280;6867;50.998;4.250;2023-07-13T04:50:01;101341.53;;;18.19;76.96
13593;BME280;6867;50.998;4.250;2023-07-13T04:52:27;101348.44;;;18.26;77.13
13593;BME280;6867;50.998;4.250;2023-07-13T04:54:54;101352.13;;;18.49;76.56
13593;BME280;6867;50.998;4.250;2023-07-13T04:57:21;101346.84;;;18.59;76.76
13593;BME280;6867;50.998;4.250;2023-07-13T04:59:47;101344.97;;;18.76;75.59
13593;BME280;6867;50.998;4.250;2023-07-13T05:02:15;101342.19;;;18.71;75.28
13593;BME280;6867;50.998;4.250;2023-07-13T05:04:42;101352.22;;;18.87;75.38
13593;BME280;6867;50.998;4.250;2023-07-13T05:07:09;101351.28;;;18.31;76.45
13593;BME280;6867;50.998;4.250;2023-07-13T05:09:36;101354.28;;;18.80;75.70
13593;BME280;6867;50.998;4.250;2023-07-13T05:12:05;101346.38;;;18.96;74.75
13593;BME280;6867;50.998;4.250;2023-07-13T05:14:31;101352.31;;;18.92;74.65
13593;BME280;6867;50.998;4.250;2023-07-13T05:16:58;101349.47;;;19.21;74.14
13593;BME280;6867;50.998;4.250;2023-07-13T05:19:26;101344.94;;;19.49;73.29
13593;BME280;6867;50.998;4.250;2023-07-13T05:21:53;101338.75;;;18.98;73.49
13593;BME280;6867;50.998;4.250;2023-07-13T05:24:20;101357.06;;;19.19;73.83
13593;BME280;6867;50.998;4.250;2023-07-13T05:26:46;101358.91;;;18.97;74.39
13593;BME280;6867;50.998;4.250;2023-07-13T05:29:13;101374.09;;;18.76;75.20
13593;BME280;6867;50.998;4.250;2023-07-13T05:31:40;101359.97;;;19.34;73.92
13593;BME280;6867;50.998;4.250;2023-07-13T05:34:06;101357.03;;;19.36;72.88
13593;BME280;6867;50.998;4.250;2023-07-13T05:36:34;101368.31;;;19.45;73.62
13593;BME280;6867;50.998;4.250;2023-07-13T05:39:02;101361.56;;;19.69;72.44
13593;BME280;6867;50.998;4.250;2023-07-13T05:41:29;101370.06;;;19.56;72.66
13593;BME280;6867;50.998;4.250;2023-07-13T05:43:56;101370.47;;;19.64;72.75
13593;BME280;6867;50.998;4.250;2023-07-13T05:46:22;101376.25;;;19.68;72.63
13593;BME280;6867;50.998;4.250;2023-07-13T05:48:49;101388.09;;;19.57;73.03
13593;BME280;6867;50.998;4.250;2023-07-13T05:51:16;101369.88;;;19.79;72.30
13593;BME280;6867;50.998;4.250;2023-07-13T05:53:44;101370.66;;;19.58;72.12
13593;BME280;6867;50.998;4.250;2023-07-13T05:56:11;101374.78;;;20.04;71.62
13593;BME280;6867;50.998;4.250;2023-07-13T05:58:37;101376.00;;;19.92;71.59
13593;BME280;6867;50.998;4.250;2023-07-13T06:01:06;101373.03;;;20.20;71.25
13593;BME280;6867;50.998;4.250;2023-07-13T06:03:33;101374.41;;;19.96;71.13
13593;BME280;6867;50.998;4.250;2023-07-13T06:06:00;101368.56;;;20.36;70.16
13593;BME280;6867;50.998;4.250;2023-07-13T06:08:27;101377.56;;;20.09;70.44
13593;BME280;6867;50.998;4.250;2023-07-13T06:11:01;101386.00;;;20.08;70.96
13593;BME280;6867;50.998;4.250;2023-07-13T06:13:28;101384.97;;;20.14;70.29
13593;BME280;6867;50.998;4.250;2023-07-13T06:15:55;101390.13;;;20.37;70.32
13593;BME280;6867;50.998;4.250;2023-07-13T06:18:22;101382.81;;;20.70;69.20
13593;BME280;6867;50.998;4.250;2023-07-13T06:20:48;101384.31;;;20.88;68.94
13593;BME280;6867;50.998;4.250;2023-07-13T06:23:15;101383.56;;;20.98;68.41
13593;BME280;6867;50.998;4.250;2023-07-13T06:25:42;101378.97;;;21.41;66.99
13593;BME280;6867;50.998;4.250;2023-07-13T06:28:10;101382.09;;;21.22;67.17
13593;BME280;6867;50.998;4.250;2023-07-13T06:30:38;101395.09;;;21.05;68.13
13593;BME280;6867;50.998;4.250;2023-07-13T06:33:04;101379.00;;;21.51;66.86
13593;BME280;6867;50.998;4.250;2023-07-13T06:35:31;101369.97;;;21.45;66.24
13593;BME280;6867;50.998;4.250;2023-07-13T06:37:58;101382.25;;;21.43;66.48
13593;BME280;6867;50.998;4.250;2023-07-13T06:40:25;101415.63;;;20.48;69.15
13593;BME280;6867;50.998;4.250;2023-07-13T06:42:54;101423.50;;;20.72;69.51
13593;BME280;6867;50.998;4.250;2023-07-13T06:45:22;101419.31;;;20.91;69.03
13593;BME280;6867;50.998;4.250;2023-07-13T06:47:49;101416.25;;;20.55;69.44
13593;BME280;6867;50.998;4.250;2023-07-13T06:50:15;101402.09;;;20.91;68.39
13593;BME280;6867;50.998;4.250;2023-07-13T06:52:42;101404.88;;;21.33;68.11
13593;BME280;6867;50.998;4.250;2023-07-13T06:55:09;101414.50;;;20.44;69.55
13593;BME280;6867;50.998;4.250;2023-07-13T06:57:35;101414.41;;;20.98;69.19
13593;BME280;6867;50.998;4.250;2023-07-13T07:00:02;101421.13;;;21.18;69.33
13593;BME280;6867;50.998;4.250;2023-07-13T07:02:33;101407.63;;;21.01;68.51
13593;BME280;6867;50.998;4.250;2023-07-13T07:04:59;101441.34;;;21.17;69.51
13593;BME280;6867;50.998;4.250;2023-07-13T07:07:26;101406.44;;;21.24;67.74
13593;BME280;6867;50.998;4.250;2023-07-13T07:09:53;101407.81;;;21.31;67.42
13593;BME280;6867;50.998;4.250;2023-07-13T07:12:19;101431.06;;;20.97;68.70
13593;BME280;6867;50.998;4.250;2023-07-13T07:14:47;101400.19;;;21.81;66.75
13593;BME280;6867;50.998;4.250;2023-07-13T07:17:13;101390.19;;;22.12;65.33
13593;BME280;6867;50.998;4.250;2023-07-13T07:19:41;101397.63;;;22.32;65.43
13593;BME280;6867;50.998;4.250;2023-07-13T07:22:08;101395.72;;;22.43;64.71
13593;BME280;6867;50.998;4.250;2023-07-13T07:24:34;101390.00;;;22.80;63.60
13593;BME280;6867;50.998;4.250;2023-07-13T07:27:01;101431.63;;;21.78;66.25
13593;BME280;6867;50.998;4.250;2023-07-13T07:29:28;101410.66;;;21.99;65.37
13593;BME280;6867;50.998;4.250;2023-07-13T07:31:55;101427.34;;;21.45;66.30
13593;BME280;6867;50.998;4.250;2023-07-13T07:34:21;101405.81;;;22.22;65.33
13593;BME280;6867;50.998;4.250;2023-07-13T07:36:49;101401.47;;;22.56;64.56
13593;BME280;6867;50.998;4.250;2023-07-13T07:39:16;101384.22;;;22.61;63.47
13593;BME280;6867;50.998;4.250;2023-07-13T07:41:43;101402.28;;;22.31;64.05
13593;BME280;6867;50.998;4.250;2023-07-13T07:44:09;101406.81;;;21.95;64.81
13593;BME280;6867;50.998;4.250;2023-07-13T07:46:36;101406.00;;;21.95;65.41
13593;BME280;6867;50.998;4.250;2023-07-13T07:49:03;101408.91;;;22.71;64.73
13593;BME280;6867;50.998;4.250;2023-07-13T07:51:29;101393.28;;;23.13;63.46
13593;BME280;6867;50.998;4.250;2023-07-13T07:53:57;101414.38;;;23.07;63.85
13593;BME280;6867;50.998;4.250;2023-07-13T07:56:25;101394.09;;;22.87;63.14
13593;BME280;6867;50.998;4.250;2023-07-13T07:58:51;101390.75;;;23.36;62.39
13593;BME280;6867;50.998;4.250;2023-07-13T08:01:18;101406.88;;;23.53;62.13
13593;BME280;6867;50.998;4.250;2023-07-13T08:03:45;101355.75;;;23.88;59.81
13593;BME280;6867;50.998;4.250;2023-07-13T08:06:11;101383.09;;;23.39;60.79
13593;BME280;6867;50.998;4.250;2023-07-13T08:08:38;101371.75;;;24.20;60.06
13593;BME280;6867;50.998;4.250;2023-07-13T08:11:09;101374.19;;;23.77;60.14
13593;BME280;6867;50.998;4.250;2023-07-13T08:13:37;101360.13;;;23.14;59.98
13593;BME280;6867;50.998;4.250;2023-07-13T08:16:04;101391.88;;;24.05;60.87
13593;BME280;6867;50.998;4.250;2023-07-13T08:18:31;101366.13;;;25.33;58.15
13593;BME280;6867;50.998;4.250;2023-07-13T08:20:58;101335.06;;;24.79;56.78
13593;BME280;6867;50.998;4.250;2023-07-13T08:23:25;101372.06;;;24.58;57.72
13593;BME280;6867;50.998;4.250;2023-07-13T08:25:52;101373.88;;;24.28;58.43
13593;BME280;6867;50.998;4.250;2023-07-13T08:28:20;101370.69;;;24.90;57.48
13593;BME280;6867;50.998;4.250;2023-07-13T08:30:47;101334.34;;;26.45;54.33
13593;BME280;6867;50.998;4.250;2023-07-13T08:33:14;101316.16;;;27.10;52.10
13593;BME280;6867;50.998;4.250;2023-07-13T08:35:41;101292.56;;;27.31;50.61
13593;BME280;6867;50.998;4.250;2023-07-13T08:38:08;101307.59;;;26.65;51.69
13593;BME280;6867;50.998;4.250;2023-07-13T08:40:34;101308.53;;;24.94;52.60
13593;BME280;6867;50.998;4.250;2023-07-13T08:43:01;101320.97;;;26.39;52.37
13593;BME280;6867;50.998;4.250;2023-07-13T08:45:34;101338.63;;;25.81;53.25
13593;BME280;6867;50.998;4.250;2023-07-13T08:48:11;101349.72;;;26.14;53.51
13593;BME280;6867;50.998;4.250;2023-07-13T08:50:47;101327.25;;;24.63;54.13
13593;BME280;6867;50.998;4.250;2023-07-13T08:53:16;101338.25;;;25.21;53.94
13593;BME280;6867;50.998;4.250;2023-07-13T08:55:44;101342.84;;;25.49;54.25
13593;BME280;6867;50.998;4.250;2023-07-13T08:58:13;101338.88;;;25.37;53.70
13593;BME280;6867;50.998;4.250;2023-07-13T09:00:46;101340.53;;;25.38;53.55
13593;BME280;6867;50.998;4.250;2023-07-13T09:03:20;101335.22;;;25.65;53.09
13593;BME280;6867;50.998;4.250;2023-07-13T09:05:51;101323.00;;;26.14;52.12
13593;BME280;6867;50.998;4.250;2023-07-13T09:08:32;101344.56;;;26.26;52.70
13593;BME280;6867;50.998;4.250;2023-07-13T09:11:11;101308.78;;;26.07;50.92
13593;BME280;6867;50.998;4.250;2023-07-13T09:13:48;101338.38;;;25.77;52.41
13593;BME280;6867;50.998;4.250;2023-07-13T09:16:22;101333.03;;;24.61;53.13
13593;BME280;6867;50.998;4.250;2023-07-13T09:18:50;101364.22;;;24.36;54.80
13593;BME280;6867;50.998;4.250;2023-07-13T09:21:21;101365.06;;;24.42;55.43
13593;BME280;6867;50.998;4.250;2023-07-13T09:23:53;101376.78;;;24.08;56.58
13593;BME280;6867;50.998;4.250;2023-07-13T09:26:23;101372.00;;;24.24;55.66
13593;BME280;6867;50.998;4.250;2023-07-13T09:28:53;101374.78;;;24.63;55.25
13593;BME280;6867;50.998;4.250;2023-07-13T09:31:30;101368.63;;;24.37;55.43
13593;BME280;6867;50.998;4.250;2023-07-13T09:34:00;101365.00;;;24.02;55.27
13593;BME280;6867;50.998;4.250;2023-07-13T09:36:29;101370.16;;;24.88;54.74
13593;BME280;6867;50.998;4.250;2023-07-13T09:38:59;101343.50;;;24.88;53.94
13593;BME280;6867;50.998;4.250;2023-07-13T09:41:35;101345.78;;;25.10;53.60
13593;BME280;6867;50.998;4.250;2023-07-13T09:44:08;101362.44;;;24.90;54.01
13593;BME280;6867;50.998;4.250;2023-07-13T09:46:39;101329.63;;;25.27;52.02
13593;BME280;6867;50.998;4.250;2023-07-13T09:49:09;101341.38;;;25.81;52.28
13593;BME280;6867;50.998;4.250;2023-07-13T09:51:37;101282.22;;;25.78;50.52
13593;BME280;6867;50.998;4.250;2023-07-13T09:54:03;101327.75;;;26.27;50.62
13593;BME280;6867;50.998;4.250;2023-07-13T09:56:30;101315.31;;;25.73;50.65
13593;BME280;6867;50.998;4.250;2023-07-13T09:58:58;101321.50;;;26.22;50.34
13593;BME280;6867;50.998;4.250;2023-07-13T10:01:35;101305.28;;;26.86;49.05
13593;BME280;6867;50.998;4.250;2023-07-13T10:04:10;101320.09;;;25.87;50.22
13593;BME280;6867;50.998;4.250;2023-07-13T10:06:38;101311.50;;;25.69;50.14
13593;BME280;6867;50.998;4.250;2023-07-13T10:09:07;101318.16;;;26.06;49.97
13593;BME280;6867;50.998;4.250;2023-07-13T10:11:35;101319.78;;;26.26;49.97
13593;BME280;6867;50.998;4.250;2023-07-13T10:14:10;101315.75;;;26.70;49.27
13593;BME280;6867;50.998;4.250;2023-07-13T10:16:38;101324.31;;;26.17;49.93
13593;BME280;6867;50.998;4.250;2023-07-13T10:19:13;101301.59;;;26.25;48.83
13593;BME280;6867;50.998;4.250;2023-07-13T10:21:46;101318.22;;;25.82;49.20
13593;BME280;6867;50.998;4.250;2023-07-13T10:24:19;101319.69;;;25.31;50.21
13593;BME280;6867;50.998;4.250;2023-07-13T10:27:00;101317.53;;;25.71;49.41
13593;BME280;6867;50.998;4.250;2023-07-13T10:29:34;101323.41;;;25.41;49.51
13593;BME280;6867;50.998;4.250;2023-07-13T10:32:03;101351.31;;;24.76;50.97
13593;BME280;6867;50.998;4.250;2023-07-13T10:34:36;101364.56;;;23.85;52.82
13593;BME280;6867;50.998;4.250;2023-07-13T10:37:05;101357.91;;;24.35;52.25
13593;BME280;6867;50.998;4.250;2023-07-13T10:39:34;101385.63;;;25.07;53.16
13593;BME280;6867;50.998;4.250;2023-07-13T10:42:05;101324.91;;;25.09;50.82
13593;BME280;6867;50.998;4.250;2023-07-13T10:44:33;101348.44;;;24.57;51.06
13593;BME280;6867;50.998;4.250;2023-07-13T10:47:02;101354.88;;;24.76;51.93
13593;BME280;6867;50.998;4.250;2023-07-13T10:49:32;101355.44;;;25.31;51.49
13593;BME280;6867;50.998;4.250;2023-07-13T10:52:02;101353.63;;;24.93;52.01
13593;BME280;6867;50.998;4.250;2023-07-13T10:54:31;101377.03;;;25.67;51.93
13593;BME280;6867;50.998;4.250;2023-07-13T10:57:17;101333.88;;;26.57;48.71
13593;BME280;6867;50.998;4.250;2023-07-13T10:59:49;101326.97;;;27.47;47.19
13593;BME280;6867;50.998;4.250;2023-07-13T11:02:35;101359.34;;;27.55;48.69
13593;BME280;6867;50.998;4.250;2023-07-13T11:05:22;101373.47;;;27.82;49.60
13593;BME280;6867;50.998;4.250;2023-07-13T11:08:03;101367.41;;;27.79;49.20
13593;BME280;6867;50.998;4.250;2023-07-13T11:10:47;101333.25;;;27.89;48.05
13593;BME280;6867;50.998;4.250;2023-07-13T11:13:55;101348.16;;;28.24;47.74
13593;BME280;6867;50.998;4.250;2023-07-13T11:16:41;101346.00;;;27.21;48.11
13593;BME280;6867;50.998;4.250;2023-07-13T11:19:28;101332.28;;;27.16;47.43
13593;BME280;6867;50.998;4.250;2023-07-13T11:22:11;101334.38;;;26.92;47.53
13593;BME280;6867;50.998;4.250;2023-07-13T11:24:57;101343.22;;;27.35;47.58
13593;BME280;6867;50.998;4.250;2023-07-13T11:27:38;101282.25;;;28.09;45.29
13593;BME280;6867;50.998;4.250;2023-07-13T11:30:13;101290.81;;;28.44;44.41
13593;BME280;6867;50.998;4.250;2023-07-13T11:32:50;101311.97;;;28.26;45.28
13593;BME280;6867;50.998;4.250;2023-07-13T11:35:21;101320.31;;;27.76;44.81
13593;BME280;6867;50.998;4.250;2023-07-13T11:37:49;101338.00;;;28.34;45.35
13593;BME280;6867;50.998;4.250;2023-07-13T11:40:17;101372.75;;;28.12;45.92
13593;BME280;6867;50.998;4.250;2023-07-13T11:42:44;101387.34;;;27.35;46.58
13593;BME280;6867;50.998;4.250;2023-07-13T11:45:20;101435.91;;;25.42;50.85
13593;BME280;6867;50.998;4.250;2023-07-13T11:47:48;101472.25;;;24.16;54.20
13593;BME280;6867;50.998;4.250;2023-07-13T11:50:20;101536.00;;;22.91;58.15
13593;BME280;6867;50.998;4.250;2023-07-13T11:52:49;101539.19;;;22.52;59.59
13593;BME280;6867;50.998;4.250;2023-07-13T11:55:18;101550.53;;;21.33;62.23
13593;BME280;6867;50.998;4.250;2023-07-13T11:57:49;101589.69;;;20.24;68.87
13593;BME280;6867;50.998;4.250;2023-07-13T12:00:20;101584.69;;;19.49;73.33
13593;BME280;6867;50.998;4.250;2023-07-13T12:02:50;101599.63;;;19.01;77.29
13593;BME280;6867;50.998;4.250;2023-07-13T12:05:19;101606.28;;;19.22;78.41
13593;BME280;6867;50.998;4.250;2023-07-13T12:07:45;101609.28;;;19.20;80.98
13593;BME280;6867;50.998;4.250;2023-07-13T12:10:20;101615.66;;;19.59;81.51
13593;BME280;6867;50.998;4.250;2023-07-13T12:12:51;101592.56;;;19.79;81.08
13593;BME280;6867;50.998;4.250;2023-07-13T12:15:18;101591.44;;;20.13;80.33
13593;BME280;6867;50.998;4.250;2023-07-13T12:17:47;101577.06;;;20.40;79.08
13593;BME280;6867;50.998;4.250;2023-07-13T12:20:21;101575.81;;;20.97;78.85
13593;BME280;6867;50.998;4.250;2023-07-13T12:22:50;101585.44;;;21.31;78.72
13593;BME280;6867;50.998;4.250;2023-07-13T12:25:17;101569.38;;;21.35;77.04
13593;BME280;6867;50.998;4.250;2023-07-13T12:27:48;101576.91;;;21.87;76.71
13593;BME280;6867;50.998;4.250;2023-07-13T12:30:24;101560.34;;;22.72;74.40
13593;BME280;6867;50.998;4.250;2023-07-13T12:33:00;101560.34;;;22.82;72.72
13593;BME280;6867;50.998;4.250;2023-07-13T12:35:29;101554.69;;;23.45;71.57
13593;BME280;6867;50.998;4.250;2023-07-13T12:38:00;101534.13;;;23.83;68.34
13593;BME280;6867;50.998;4.250;2023-07-13T12:40:32;101528.00;;;24.66;66.78
13593;BME280;6867;50.998;4.250;2023-07-13T12:43:01;101508.22;;;25.43;64.25
13593;BME280;6867;50.998;4.250;2023-07-13T12:45:30;101502.34;;;25.54;62.62
13593;BME280;6867;50.998;4.250;2023-07-13T12:47:59;101493.53;;;25.52;62.31
13593;BME280;6867;50.998;4.250;2023-07-13T12:50:34;101490.63;;;26.16;60.23
13593;BME280;6867;50.998;4.250;2023-07-13T12:53:04;101473.88;;;26.55;58.48
13593;BME280;6867;50.998;4.250;2023-07-13T12:55:41;101474.19;;;27.38;57.58
13593;BME280;6867;50.998;4.250;2023-07-13T12:58:26;101472.31;;;26.68;58.58
13593;BME280;6867;50.998;4.250;2023-07-13T13:00:55;101503.59;;;26.15;59.35
13593;BME280;6867;50.998;4.250;2023-07-13T13:03:27;101482.66;;;26.57;58.29
13593;BME280;6867;50.998;4.250;2023-07-13T13:05:59;101459.22;;;27.11;56.32
13593;BME280;6867;50.998;4.250;2023-07-13T13:08:30;101483.44;;;26.95;57.50
13593;BME280;6867;50.998;4.250;2023-07-13T13:10:56;101456.41;;;27.30;55.66
13593;BME280;6867;50.998;4.250;2023-07-13T13:13:25;101460.06;;;26.93;56.11